createdAt,value
2023-02-11T00:01:42.476Z,101586.72
2023-02-11T00:04:11.524Z,101583.22
2023-02-11T00:06:40.435Z,101575.34
2023-02-11T00:09:09.356Z,101574.16
2023-02-11T00:11:40.482Z,101582.94
2023-02-11T00:14:09.457Z,101579.97
2023-02-11T00:16:38.279Z,101576.75
2023-02-11T00:19:07.687Z,101575.75
2023-02-11T00:21:36.780Z,101582.44
2023-02-11T00:24:05.883Z,101575.25
2023-02-11T00:26:37.020Z,101577.75
2023-02-11T00:29:07.444Z,101587.28
2023-02-11T00:31:36.538Z,101577.16
2023-02-11T00:34:07.457Z,101583.00
2023-02-11T00:36:36.188Z,101583.75
2023-02-11T00:39:05.815Z,101583.50
2023-02-11T00:41:36.613Z,101587.19
2023-02-11T00:44:07.044Z,101577.25
2023-02-11T00:46:35.945Z,101579.44
2023-02-11T00:49:04.575Z,101578.84
2023-02-11T00:51:33.408Z,101576.94
2023-02-11T00:54:02.189Z,101570.94
2023-02-11T00:56:31.019Z,101577.25
2023-02-11T00:58:59.868Z,101579.16
2023-02-11T01:01:30.158Z,101574.78
2023-02-11T01:03:59.022Z,101582.13
2023-02-11T01:06:27.661Z,101576.63
2023-02-11T01:08:56.592Z,101580.53
2023-02-11T01:11:25.326Z,101576.69
2023-02-11T01:13:54.152Z,101568.19
2023-02-11T01:16:24.861Z,101567.72
2023-02-11T01:18:56.848Z,101563.94
2023-02-11T01:21:26.152Z,101571.41
2023-02-11T01:23:54.909Z,101569.97
2023-02-11T01:26:23.758Z,101575.13
2023-02-11T01:28:52.638Z,101569.84
2023-02-11T01:31:21.543Z,101559.88
2023-02-11T01:33:50.484Z,101558.28
2023-02-11T01:36:20.782Z,101555.44
2023-02-11T01:38:50.141Z,101554.84
2023-02-11T01:41:22.798Z,101553.72
2023-02-11T01:43:52.281Z,101554.63
2023-02-11T01:46:36.459Z,101543.94
2023-02-11T01:49:09.183Z,101544.97
2023-02-11T01:51:43.588Z,101536.47
2023-02-11T01:54:26.350Z,101531.69
2023-02-11T01:57:08.655Z,101524.22
2023-02-11T01:59:46.285Z,101520.97
2023-02-11T02:02:19.091Z,101516.06
2023-02-11T02:04:54.430Z,101513.16
2023-02-11T02:07:34.761Z,101510.81
2023-02-11T02:10:08.273Z,101513.69
2023-02-11T02:12:38.660Z,101508.44
2023-02-11T02:15:21.301Z,101501.31
2023-02-11T02:17:59.947Z,101502.94
2023-02-11T02:21:03.286Z,101499.44
2023-02-11T02:23:49.949Z,101493.50
2023-02-11T02:26:44.187Z,101484.13
2023-02-11T02:29:44.357Z,101476.66
2023-02-11T02:32:31.764Z,101474.44
2023-02-11T02:35:07.394Z,101471.94
2023-02-11T02:37:42.025Z,101463.88
2023-02-11T02:40:15.583Z,101469.72
2023-02-11T02:42:45.954Z,101461.22
2023-02-11T02:45:15.990Z,101465.59
2023-02-11T02:47:46.142Z,101460.94
2023-02-11T02:50:19.880Z,101464.94
2023-02-11T02:53:01.899Z,101458.66
2023-02-11T02:55:44.390Z,101458.13
2023-02-11T02:58:38.050Z,101457.84
2023-02-11T03:01:17.008Z,101457.72
2023-02-11T03:03:54.420Z,101460.06
2023-02-11T03:06:31.437Z,101459.34
2023-02-11T03:09:09.008Z,101449.94
2023-02-11T03:11:39.894Z,101450.19
2023-02-11T03:14:13.928Z,101451.94
2023-02-11T03:16:45.129Z,101457.56
2023-02-11T03:19:20.263Z,101447.38
2023-02-11T03:21:53.477Z,101438.28
2023-02-11T03:24:27.707Z,101443.13
2023-02-11T03:27:00.461Z,101447.56
2023-02-11T03:29:36.970Z,101441.28
2023-02-11T03:32:16.559Z,101443.13
2023-02-11T03:34:51.853Z,101434.66
2023-02-11T03:37:25.231Z,101399.19
2023-02-11T03:39:58.434Z,101423.84
2023-02-11T03:42:34.892Z,101424.75
2023-02-11T03:45:09.728Z,101421.53
2023-02-11T03:47:41.391Z,101411.31
2023-02-11T03:50:16.414Z,101423.84
2023-02-11T03:52:46.876Z,101415.03
2023-02-11T03:55:19.587Z,101410.34
2023-02-11T03:57:49.439Z,101408.94
2023-02-11T04:00:18.368Z,101404.81
2023-02-11T04:02:47.402Z,101398.81
2023-02-11T04:05:18.091Z,101408.06
2023-02-11T04:07:46.921Z,101404.28
2023-02-11T04:10:16.086Z,101403.69
2023-02-11T04:12:45.110Z,101401.22
2023-02-11T04:15:13.881Z,101394.94
2023-02-11T04:17:43.240Z,101390.56
2023-02-11T04:20:13.254Z,101384.75
2023-02-11T04:22:43.479Z,101388.97
2023-02-11T04:25:12.414Z,101380.78
2023-02-11T04:27:41.262Z,101385.19
2023-02-11T04:30:14.002Z,101385.19
2023-02-11T04:32:42.821Z,101387.28
2023-02-11T04:35:11.443Z,101386.53
2023-02-11T04:37:40.205Z,101388.56
2023-02-11T04:40:11.922Z,101392.66
2023-02-11T04:42:40.759Z,101390.56
2023-02-11T04:45:10.272Z,101390.25
2023-02-11T04:47:39.013Z,101387.88
2023-02-11T04:50:08.131Z,101383.19
2023-02-11T04:52:36.907Z,101374.97
2023-02-11T04:55:06.034Z,101371.75
2023-02-11T04:57:36.535Z,101373.75
2023-02-11T05:00:06.167Z,101382.59
2023-02-11T05:02:34.625Z,101395.13
2023-02-11T05:05:03.617Z,101395.75
2023-02-11T05:07:32.580Z,101395.13
2023-02-11T05:10:01.386Z,101387.78
2023-02-11T05:12:30.090Z,101390.06
2023-02-11T05:15:00.429Z,101378.94
2023-02-11T05:17:29.162Z,101373.13
2023-02-11T05:19:57.888Z,101372.44
2023-02-11T05:22:26.738Z,101377.69
2023-02-11T05:24:55.537Z,101371.63
2023-02-11T05:27:24.391Z,101384.06
2023-02-11T05:29:53.138Z,101374.41
2023-02-11T05:32:23.404Z,101368.25
2023-02-11T05:34:52.612Z,101357.44
2023-02-11T05:37:21.351Z,101358.88
2023-02-11T05:39:50.178Z,101354.63
2023-02-11T05:42:18.963Z,101355.50
2023-02-11T05:44:50.479Z,101353.88
2023-02-11T05:47:19.654Z,101356.09
2023-02-11T05:49:49.805Z,101348.03
2023-02-11T05:52:18.584Z,101345.31
2023-02-11T05:54:47.288Z,101336.25
2023-02-11T05:57:16.418Z,101336.50
2023-02-11T05:59:45.353Z,101344.03
2023-02-11T06:02:14.680Z,101338.59
2023-02-11T06:04:44.574Z,101331.34
2023-02-11T06:07:14.839Z,101318.28
2023-02-11T06:09:43.860Z,101335.13
2023-02-11T06:12:12.633Z,101335.38
2023-02-11T06:14:41.895Z,101331.28
2023-02-11T06:17:10.680Z,101322.53
2023-02-11T06:19:39.660Z,101325.78
2023-02-11T06:22:08.373Z,101321.66
2023-02-11T06:24:59.761Z,101309.72
2023-02-11T06:27:27.687Z,101305.41
2023-02-11T06:29:56.640Z,101304.78
2023-02-11T06:32:42.656Z,101307.66
2023-02-11T06:35:13.006Z,101301.47
2023-02-11T06:37:41.881Z,101291.78
2023-02-11T06:40:13.321Z,101304.84
2023-02-11T06:42:42.628Z,101299.88
2023-02-11T06:45:13.587Z,101323.88
2023-02-11T06:47:43.065Z,101312.41
2023-02-11T06:50:15.133Z,101310.66
2023-02-11T06:52:43.882Z,101315.91
2023-02-11T06:55:14.013Z,101305.25
2023-02-11T06:57:42.862Z,101322.09
2023-02-11T07:00:12.894Z,101314.94
2023-02-11T07:02:41.697Z,101317.44
2023-02-11T07:05:10.908Z,101296.00
2023-02-11T07:07:39.743Z,101318.47
2023-02-11T07:10:08.873Z,101319.88
2023-02-11T07:12:39.161Z,101322.13
2023-02-11T07:15:08.510Z,101315.25
2023-02-11T07:17:37.343Z,101315.25
2023-02-11T07:20:06.752Z,101306.38
2023-02-11T07:22:36.003Z,101322.13
2023-02-11T07:25:05.674Z,101314.13
2023-02-11T07:27:34.093Z,101313.16
2023-02-11T07:30:06.987Z,101313.06
2023-02-11T07:32:36.595Z,101311.41
2023-02-11T07:35:06.295Z,101317.44
2023-02-11T07:37:35.386Z,101313.44
2023-02-11T07:40:05.350Z,101300.19
2023-02-11T07:42:35.620Z,101315.41
2023-02-11T07:45:06.477Z,101325.50
2023-02-11T07:47:36.150Z,101317.38
2023-02-11T07:50:04.611Z,101324.59
2023-02-11T07:52:33.785Z,101318.34
2023-02-11T07:55:04.853Z,101317.38
2023-02-11T07:57:33.918Z,101308.59
2023-02-11T08:00:02.603Z,101293.88
2023-02-11T08:02:40.861Z,101311.56
2023-02-11T08:05:09.950Z,101310.53
2023-02-11T08:07:38.622Z,101305.53
2023-02-11T08:10:07.973Z,101295.69
2023-02-11T08:12:36.691Z,101310.78
2023-02-11T08:15:05.980Z,101302.38
2023-02-11T08:17:36.699Z,101289.63
2023-02-11T08:20:08.477Z,101283.78
2023-02-11T08:22:37.319Z,101296.34
2023-02-11T08:25:06.604Z,101286.13
2023-02-11T08:27:35.841Z,101287.81
2023-02-11T08:30:04.668Z,101286.22
2023-02-11T08:32:35.598Z,101277.25
2023-02-11T08:35:04.220Z,101277.94
2023-02-11T08:37:34.566Z,101284.34
2023-02-11T08:40:03.333Z,101277.09
2023-02-11T08:42:31.977Z,101279.16
2023-02-11T08:45:01.262Z,101272.28
2023-02-11T08:47:30.021Z,101276.22
2023-02-11T08:49:58.927Z,101271.78
2023-02-11T08:52:27.701Z,101263.97
2023-02-11T08:54:58.020Z,101276.72
2023-02-11T08:57:28.023Z,101268.22
2023-02-11T08:59:57.282Z,101271.28
2023-02-11T09:02:26.841Z,101273.16
2023-02-11T09:04:56.165Z,101264.25
2023-02-11T09:07:24.907Z,101269.69
2023-02-11T09:09:53.669Z,101267.06
2023-02-11T09:12:23.767Z,101256.53
2023-02-11T09:14:53.562Z,101256.97
2023-02-11T09:17:22.362Z,101253.25
2023-02-11T09:19:51.015Z,101250.25
2023-02-11T09:22:20.059Z,101258.06
2023-02-11T09:24:48.817Z,101250.88
2023-02-11T09:27:17.479Z,101253.72
2023-02-11T09:29:47.688Z,101268.09
2023-02-11T09:32:16.525Z,101270.03
2023-02-11T09:34:45.302Z,101265.47
2023-02-11T09:37:14.114Z,101270.91
2023-02-11T09:39:42.860Z,101273.31
2023-02-11T09:42:36.328Z,101283.31
2023-02-11T09:45:16.115Z,101287.31
2023-02-11T09:47:51.109Z,101277.19
2023-02-11T09:50:25.106Z,101272.59
2023-02-11T09:52:59.659Z,101262.22
2023-02-11T09:55:31.726Z,101249.47
2023-02-11T09:58:01.329Z,101239.66
2023-02-11T10:00:34.870Z,101241.19
2023-02-11T10:03:24.297Z,101232.06
2023-02-11T10:06:09.862Z,101233.59
2023-02-11T10:08:47.107Z,101223.78
2023-02-11T10:11:31.519Z,101228.31
2023-02-11T10:14:15.169Z,101231.63
2023-02-11T10:17:00.720Z,101223.31
2023-02-11T10:19:44.560Z,101205.66
2023-02-11T10:22:21.013Z,101208.03
2023-02-11T10:24:55.659Z,101196.69
2023-02-11T10:27:32.370Z,101185.97
2023-02-11T10:30:08.369Z,101189.59
2023-02-11T10:32:46.452Z,101189.25
2023-02-11T10:35:18.566Z,101199.16
2023-02-11T10:37:47.270Z,101199.97
2023-02-11T10:40:18.293Z,101182.56
2023-02-11T10:42:51.550Z,101174.06
2023-02-11T10:45:29.138Z,101159.63
2023-02-11T10:48:00.408Z,101142.19
2023-02-11T10:50:33.989Z,101151.63
2023-02-11T10:53:21.226Z,101146.28
2023-02-11T10:55:55.064Z,101127.47
2023-02-11T10:58:27.835Z,101117.41
2023-02-11T11:01:00.025Z,101108.13
2023-02-11T11:03:35.686Z,101107.59
2023-02-11T11:06:07.293Z,101130.50
2023-02-11T11:08:43.331Z,101136.50
2023-02-11T11:11:14.468Z,101131.38
2023-02-11T11:13:56.536Z,101137.41
2023-02-11T11:16:28.154Z,101139.47
2023-02-11T11:19:22.001Z,101133.88
2023-02-11T11:21:53.272Z,101130.78
2023-02-11T11:24:30.757Z,101127.63
2023-02-11T11:27:02.286Z,101116.91
2023-02-11T11:29:36.459Z,101099.56
2023-02-11T11:32:08.239Z,101101.59
2023-02-11T11:34:40.765Z,101095.31
2023-02-11T11:37:14.140Z,101091.19
2023-02-11T11:39:43.174Z,101083.91
2023-02-11T11:42:28.081Z,101075.38
2023-02-11T11:45:02.692Z,101080.13
2023-02-11T11:47:41.900Z,101070.53
2023-02-11T11:50:28.041Z,101069.72
2023-02-11T11:53:05.338Z,101070.44
2023-02-11T11:55:40.240Z,101068.28
2023-02-11T11:58:14.739Z,101062.47
2023-02-11T12:00:53.422Z,101062.47
2023-02-11T12:03:45.186Z,101050.63
2023-02-11T12:06:27.166Z,101046.75
2023-02-11T12:09:10.046Z,101041.44
2023-02-11T12:11:58.119Z,101018.78
2023-02-11T12:14:35.270Z,101020.81
2023-02-11T12:17:13.116Z,101011.84
2023-02-11T12:20:10.477Z,101018.66
2023-02-11T12:22:54.024Z,101022.84
2023-02-11T12:25:29.189Z,101022.25
2023-02-11T12:28:15.613Z,101017.94
2023-02-11T12:31:07.059Z,101014.44
2023-02-11T12:33:57.571Z,101014.88
2023-02-11T12:36:47.659Z,101012.72
2023-02-11T12:39:31.890Z,101012.16
2023-02-11T12:42:28.768Z,101000.91
2023-02-11T12:45:16.371Z,100995.72
2023-02-11T12:48:02.839Z,100984.88
2023-02-11T12:50:43.730Z,100987.91
2023-02-11T12:53:40.828Z,100977.50
2023-02-11T12:56:19.311Z,100967.41
2023-02-11T12:58:52.009Z,100952.41
2023-02-11T13:01:25.277Z,100950.31
2023-02-11T13:03:58.991Z,100943.91
2023-02-11T13:06:34.755Z,100939.19
2023-02-11T13:09:06.181Z,100954.56
2023-02-11T13:11:40.245Z,100965.41
2023-02-11T13:14:16.655Z,100982.78
2023-02-11T13:16:47.855Z,100987.69
2023-02-11T13:19:22.985Z,101010.34
2023-02-11T13:22:06.938Z,101015.25
2023-02-11T13:24:45.207Z,101009.00
2023-02-11T13:27:31.330Z,101013.00
2023-02-11T13:30:28.734Z,101020.22
2023-02-11T13:33:18.450Z,101017.47
2023-02-11T13:35:49.674Z,101021.59
2023-02-11T13:38:24.094Z,101019.84
2023-02-11T13:41:05.132Z,101026.63
2023-02-11T13:43:37.197Z,101018.91
2023-02-11T13:46:10.409Z,101016.31
2023-02-11T13:48:41.627Z,101008.66
2023-02-11T13:51:14.430Z,101020.34
2023-02-11T13:53:48.766Z,101017.03
2023-02-11T13:56:30.520Z,101005.19
2023-02-11T13:59:02.676Z,101001.75
2023-02-11T14:02:13.243Z,101001.09
2023-02-11T14:05:14.410Z,100998.00
2023-02-11T14:08:24.055Z,100988.13
2023-02-11T14:10:54.115Z,100975.81
2023-02-11T14:13:26.653Z,100969.38
2023-02-11T14:16:09.469Z,100968.00
2023-02-11T14:18:39.871Z,100971.53
2023-02-11T14:21:15.408Z,100969.88
2023-02-11T14:23:45.346Z,100965.63
2023-02-11T14:26:36.662Z,100958.91
2023-02-11T14:29:14.666Z,100953.78
2023-02-11T14:31:50.626Z,100952.84
2023-02-11T14:34:35.274Z,100942.88
2023-02-11T14:37:23.278Z,100942.31
2023-02-11T14:40:10.754Z,100945.47
2023-02-11T14:42:40.166Z,100937.78
2023-02-11T14:45:12.904Z,100958.03
2023-02-11T14:47:50.408Z,100948.59
2023-02-11T14:50:25.874Z,100948.72
2023-02-11T14:52:56.285Z,100935.16
2023-02-11T14:55:34.069Z,100926.00
2023-02-11T14:58:15.257Z,100918.50
2023-02-11T15:00:53.544Z,100913.59
2023-02-11T15:03:35.907Z,100906.81
2023-02-11T15:06:08.992Z,100909.28
2023-02-11T15:08:43.759Z,100910.84
2023-02-11T15:11:15.498Z,100915.91
2023-02-11T15:13:48.182Z,100891.41
2023-02-11T15:16:20.179Z,100872.13
2023-02-11T15:18:53.813Z,100876.81
2023-02-11T15:21:24.270Z,100879.88
2023-02-11T15:24:02.379Z,100881.31
2023-02-11T15:26:32.175Z,100879.72
2023-02-11T15:29:01.646Z,100888.06
2023-02-11T15:31:32.573Z,100888.06
2023-02-11T15:34:10.578Z,100908.28
2023-02-11T15:36:39.885Z,100914.78
2023-02-11T15:39:33.432Z,100915.41
2023-02-11T15:42:20.281Z,100912.63
2023-02-11T15:44:56.300Z,100902.38
2023-02-11T15:47:26.091Z,100891.19
2023-02-11T15:49:56.526Z,100882.34
2023-02-11T15:52:29.661Z,100893.00
2023-02-11T15:55:02.531Z,100900.22
2023-02-11T15:57:31.747Z,100905.53
2023-02-11T16:00:04.803Z,100901.63
2023-02-11T16:02:45.510Z,100898.00
2023-02-11T16:05:30.931Z,100897.06
2023-02-11T16:08:00.841Z,100895.97
2023-02-11T16:10:30.220Z,100914.09
2023-02-11T16:13:20.929Z,100905.44
2023-02-11T16:15:55.712Z,100921.28
2023-02-11T16:18:38.823Z,100912.06
2023-02-11T16:21:18.058Z,100908.63
2023-02-11T16:23:54.338Z,100919.41
2023-02-11T16:26:28.926Z,100916.00
2023-02-11T16:29:07.093Z,100912.56
2023-02-11T16:31:38.213Z,100915.84
2023-02-11T16:34:15.002Z,100904.84
2023-02-11T16:36:45.558Z,100896.50
2023-02-11T16:39:14.674Z,100893.03
2023-02-11T16:41:43.376Z,100902.97
2023-02-11T16:44:12.178Z,100907.66
2023-02-11T16:46:41.008Z,100910.28
2023-02-11T16:49:13.207Z,100912.59
2023-02-11T16:51:42.813Z,100924.06
2023-02-11T16:54:15.357Z,100929.09
2023-02-11T16:56:44.758Z,100932.41
2023-02-11T16:59:13.897Z,100922.31
2023-02-11T17:01:44.587Z,100923.56
2023-02-11T17:04:25.211Z,100928.47
2023-02-11T17:06:55.999Z,100916.81
2023-02-11T17:09:31.087Z,100913.38
2023-02-11T17:12:00.429Z,100903.34
2023-02-11T17:14:29.124Z,100909.03
2023-02-11T17:16:57.977Z,100914.78
2023-02-11T17:19:26.604Z,100911.16
2023-02-11T17:21:55.334Z,100913.84
2023-02-11T17:24:24.743Z,100917.06
2023-02-11T17:26:55.060Z,100923.91
2023-02-11T17:29:28.781Z,100917.19
2023-02-11T17:31:57.683Z,100917.84
2023-02-11T17:34:26.375Z,100900.28
2023-02-11T17:36:55.243Z,100929.56
2023-02-11T17:39:24.385Z,100923.56
2023-02-11T17:41:54.616Z,100928.72
2023-02-11T17:44:23.413Z,100932.88
2023-02-11T17:46:52.186Z,100925.31
2023-02-11T17:49:21.044Z,100927.84
2023-02-11T17:51:49.679Z,100921.06
2023-02-11T17:54:20.924Z,100919.34
2023-02-11T17:56:50.964Z,100910.81
2023-02-11T17:59:22.606Z,100914.31
2023-02-11T18:01:51.376Z,100910.81
2023-02-11T18:04:21.192Z,100907.53
2023-02-11T18:06:50.496Z,100910.97
2023-02-11T18:09:19.177Z,100900.75
2023-02-11T18:11:48.614Z,100895.56
2023-02-11T18:14:17.387Z,100899.72
2023-02-11T18:16:47.725Z,100899.72
2023-02-11T18:19:16.490Z,100890.38
2023-02-11T18:21:45.322Z,100903.72
2023-02-11T18:24:14.103Z,100906.41
2023-02-11T18:26:42.760Z,100902.31
2023-02-11T18:29:11.614Z,100899.03
2023-02-11T18:31:40.708Z,100900.59
2023-02-11T18:34:12.204Z,100895.47
2023-02-11T18:36:41.072Z,100900.44
2023-02-11T18:39:09.838Z,100903.03
2023-02-11T18:41:42.497Z,100898.88
2023-02-11T18:44:14.473Z,100907.34
2023-02-11T18:46:43.315Z,100904.84
2023-02-11T18:49:13.517Z,100902.31
2023-02-11T18:51:42.678Z,100899.91
2023-02-11T18:54:11.396Z,100888.78
2023-02-11T18:56:40.297Z,100895.63
2023-02-11T18:59:08.943Z,100893.81
2023-02-11T19:01:40.766Z,100890.38
2023-02-11T19:04:09.655Z,100896.16
2023-02-11T19:06:40.207Z,100896.97
2023-02-11T19:09:12.008Z,100901.22
2023-02-11T19:11:51.375Z,100902.78
2023-02-11T19:14:23.840Z,100916.78
2023-02-11T19:16:54.635Z,100915.06
2023-02-11T19:19:25.946Z,100907.66
2023-02-11T19:21:56.965Z,100905.00
2023-02-11T19:24:26.433Z,100901.69
2023-02-11T19:26:58.363Z,100908.63
2023-02-11T19:29:27.333Z,100896.81
2023-02-11T19:31:56.170Z,100895.06
2023-02-11T19:34:25.059Z,100890.84
2023-02-11T19:36:55.499Z,100885.81
2023-02-11T19:39:26.026Z,100886.75
2023-02-11T19:41:55.225Z,100880.84
2023-02-11T19:44:23.978Z,100887.69
2023-02-11T19:46:53.714Z,100893.53
2023-02-11T19:49:26.388Z,100901.53
2023-02-11T19:51:58.713Z,100898.16
